sensor_id;sensor_type;location;lat;lon;timestamp;temperature;humidity
12682;DHT22;6405;59.208;18.216;2023-12-14T00:01:44;-4.70;99.90
12682;DHT22;6405;59.208;18.216;2023-12-14T00:04:12;-4.70;99.90
12682;DHT22;6405;59.208;18.216;2023-12-14T00:06:37;-4.70;99.90
12682;DHT22;6405;59.208;18.216;2023-12-14T00:09:03;-4.70;99.90
12682;DHT22;6405;59.208;18.216;2023-12-14T00:11:29;-4.70;99.90
12682;DHT22;6405;59.208;18.216;2023-12-14T00:13:55;-4.70;99.90
12682;DHT22;6405;59.208;18.216;2023-12-14T00:16:21;-4.80;99.90
12682;DHT22;6405;59.208;18.216;2023-12-14T00:18:47;-4.70;99.90
12682;DHT22;6405;59.208;18.216;2023-12-14T00:21:12;-4.80;99.90
12682;DHT22;6405;59.208;18.216;2023-12-14T00:23:38;-4.80;99.90
12682;DHT22;6405;59.208;18.216;2023-12-14T00:26:04;-4.80;99.90
12682;DHT22;6405;59.208;18.216;2023-12-14T00:28:29;-4.80;99.90
12682;DHT22;6405;59.208;18.216;2023-12-14T00:30:55;-4.80;99.90
12682;DHT22;6405;59.208;18.216;2023-12-14T00:33:21;-4.80;99.90
12682;DHT22;6405;59.208;18.216;2023-12-14T00:35:46;-4.90;99.90
12682;DHT22;6405;59.208;18.216;2023-12-14T00:38:12;-4.90;99.90
12682;DHT22;6405;59.208;18.216;2023-12-14T00:40:38;-4.90;99.90
12682;DHT22;6405;59.208;18.216;2023-12-14T00:43:04;-4.90;99.90
12682;DHT22;6405;59.208;18.216;2023-12-14T00:45:29;-4.90;99.90
12682;DHT22;6405;59.208;18.216;2023-12-14T00:47:55;-4.90;99.90
12682;DHT22;6405;59.208;18.216;2023-12-14T00:50:21;-4.90;99.90
12682;DHT22;6405;59.208;18.216;2023-12-14T00:52:46;-4.90;99.90
12682;DHT22;6405;59.208;18.216;2023-12-14T00:55:12;-4.90;99.90
12682;DHT22;6405;59.208;18.216;2023-12-14T00:57:38;-4.90;99.90
12682;DHT22;6405;59.208;18.216;2023-12-14T01:00:04;-5.00;99.90
12682;DHT22;6405;59.208;18.216;2023-12-14T01:02:29;-5.00;99.90
12682;DHT22;6405;59.208;18.216;2023-12-14T01:04:55;-5.00;99.90
12682;DHT22;6405;59.208;18.216;2023-12-14T01:07:21;-5.00;99.90
12682;DHT22;6405;59.208;18.216;2023-12-14T01:09:47;-5.10;99.90
12682;DHT22;6405;59.208;18.216;2023-12-14T01:12:12;-5.10;99.90
12682;DHT22;6405;59.208;18.216;2023-12-14T01:14:38;-5.10;99.90
12682;DHT22;6405;59.208;18.216;2023-12-14T01:17:04;-5.10;99.90
12682;DHT22;6405;59.208;18.216;2023-12-14T01:19:29;-5.10;99.90
12682;DHT22;6405;59.208;18.216;2023-12-14T01:21:55;-5.10;99.90
12682;DHT22;6405;59.208;18.216;2023-12-14T01:24:21;-5.10;99.90
12682;DHT22;6405;59.208;18.216;2023-12-14T01:26:46;-5.10;99.90
12682;DHT22;6405;59.208;18.216;2023-12-14T01:29:12;-5.10;99.90
12682;DHT22;6405;59.208;18.216;2023-12-14T01:31:38;-5.20;99.90
12682;DHT22;6405;59.208;18.216;2023-12-14T01:34:03;-5.20;99.90
12682;DHT22;6405;59.208;18.216;2023-12-14T01:36:29;-5.20;99.90
12682;DHT22;6405;59.208;18.216;2023-12-14T01:38:55;-5.20;99.90
12682;DHT22;6405;59.208;18.216;2023-12-14T01:41:20;-5.20;99.90
12682;DHT22;6405;59.208;18.216;2023-12-14T01:43:46;-5.10;99.90
12682;DHT22;6405;59.208;18.216;2023-12-14T01:46:12;-5.20;99.90
12682;DHT22;6405;59.208;18.216;2023-12-14T01:48:39;-5.20;99.90
12682;DHT22;6405;59.208;18.216;2023-12-14T01:51:05;-5.20;99.90
12682;DHT22;6405;59.208;18.216;2023-12-14T01:53:30;-5.20;99.90
12682;DHT22;6405;59.208;18.216;2023-12-14T01:55:56;-5.20;99.90
12682;DHT22;6405;59.208;18.216;2023-12-14T01:58:22;-5.20;99.90
12682;DHT22;6405;59.208;18.216;2023-12-14T02:01:10;-5.20;99.90
12682;DHT22;6405;59.208;18.216;2023-12-14T02:03:49;-5.20;99.90
12682;DHT22;6405;59.208;18.216;2023-12-14T02:06:16;-5.30;99.90
12682;DHT22;6405;59.208;18.216;2023-12-14T02:08:41;-5.20;99.90
12682;DHT22;6405;59.208;18.216;2023-12-14T02:11:07;-5.20;99.90
12682;DHT22;6405;59.208;18.216;2023-12-14T02:13:33;-5.20;99.90
12682;DHT22;6405;59.208;18.216;2023-12-14T02:15:59;-5.30;99.90
12682;DHT22;6405;59.208;18.216;2023-12-14T02:18:25;-5.30;99.90
12682;DHT22;6405;59.208;18.216;2023-12-14T02:20:51;-5.20;99.90
12682;DHT22;6405;59.208;18.216;2023-12-14T02:23:17;-5.30;99.90
12682;DHT22;6405;59.208;18.216;2023-12-14T02:25:43;-5.30;99.90
12682;DHT22;6405;59.208;18.216;2023-12-14T02:28:08;-5.30;99.90
12682;DHT22;6405;59.208;18.216;2023-12-14T02:30:34;-5.20;99.90
12682;DHT22;6405;59.208;18.216;2023-12-14T02:33:00;-5.20;99.90
12682;DHT22;6405;59.208;18.216;2023-12-14T02:35:25;-5.30;99.90
12682;DHT22;6405;59.208;18.216;2023-12-14T02:37:51;-5.30;99.90
12682;DHT22;6405;59.208;18.216;2023-12-14T02:40:18;-5.20;99.90
12682;DHT22;6405;59.208;18.216;2023-12-14T02:42:43;-5.20;99.90
12682;DHT22;6405;59.208;18.216;2023-12-14T02:45:10;-5.30;99.90
12682;DHT22;6405;59.208;18.216;2023-12-14T02:47:35;-5.30;99.90
12682;DHT22;6405;59.208;18.216;2023-12-14T02:50:01;-5.30;99.90
12682;DHT22;6405;59.208;18.216;2023-12-14T02:52:27;-5.30;99.90
12682;DHT22;6405;59.208;18.216;2023-12-14T02:54:53;-5.30;99.90
12682;DHT22;6405;59.208;18.216;2023-12-14T02:57:19;-5.30;99.90
12682;DHT22;6405;59.208;18.216;2023-12-14T02:59:44;-5.30;99.90
12682;DHT22;6405;59.208;18.216;2023-12-14T03:02:10;-5.30;99.90
12682;DHT22;6405;59.208;18.216;2023-12-14T03:04:39;-5.30;99.90
12682;DHT22;6405;59.208;18.216;2023-12-14T03:07:05;-5.30;99.90
12682;DHT22;6405;59.208;18.216;2023-12-14T03:09:31;-5.30;99.90
12682;DHT22;6405;59.208;18.216;2023-12-14T03:11:57;-5.30;99.90
12682;DHT22;6405;59.208;18.216;2023-12-14T03:14:23;-5.30;99.90
12682;DHT22;6405;59.208;18.216;2023-12-14T03:16:49;-5.30;99.90
12682;DHT22;6405;59.208;18.216;2023-12-14T03:19:15;-5.30;99.90
12682;DHT22;6405;59.208;18.216;2023-12-14T03:21:42;-5.30;99.90
12682;DHT22;6405;59.208;18.216;2023-12-14T03:24:08;-5.30;99.90
12682;DHT22;6405;59.208;18.216;2023-12-14T03:26:37;-5.30;99.90
12682;DHT22;6405;59.208;18.216;2023-12-14T03:29:02;-5.30;99.90
12682;DHT22;6405;59.208;18.216;2023-12-14T03:31:28;-5.30;99.90
12682;DHT22;6405;59.208;18.216;2023-12-14T03:33:54;-5.30;99.90
12682;DHT22;6405;59.208;18.216;2023-12-14T03:36:19;-5.20;99.90
12682;DHT22;6405;59.208;18.216;2023-12-14T03:38:45;-5.20;99.90
12682;DHT22;6405;59.208;18.216;2023-12-14T03:41:11;-5.30;99.90
12682;DHT22;6405;59.208;18.216;2023-12-14T03:43:37;-5.20;99.90
12682;DHT22;6405;59.208;18.216;2023-12-14T03:46:03;-5.20;99.90
12682;DHT22;6405;59.208;18.216;2023-12-14T03:48:31;-5.20;99.90
12682;DHT22;6405;59.208;18.216;2023-12-14T03:50:57;-5.20;99.90
12682;DHT22;6405;59.208;18.216;2023-12-14T03:53:23;-5.20;99.90
12682;DHT22;6405;59.208;18.216;2023-12-14T03:55:48;-5.20;99.90
12682;DHT22;6405;59.208;18.216;2023-12-14T03:58:14;-5.20;99.90
12682;DHT22;6405;59.208;18.216;2023-12-14T04:00:40;-5.20;99.90
12682;DHT22;6405;59.208;18.216;2023-12-14T04:03:13;-5.20;99.90
12682;DHT22;6405;59.208;18.216;2023-12-14T04:05:39;-5.20;99.90
12682;DHT22;6405;59.208;18.216;2023-12-14T04:08:05;-5.20;99.90
12682;DHT22;6405;59.208;18.216;2023-12-14T04:10:30;-5.20;99.90
12682;DHT22;6405;59.208;18.216;2023-12-14T04:12:56;-5.10;99.90
12682;DHT22;6405;59.208;18.216;2023-12-14T04:15:22;-5.20;99.90
12682;DHT22;6405;59.208;18.216;2023-12-14T04:17:48;-5.10;99.90
12682;DHT22;6405;59.208;18.216;2023-12-14T04:20:14;-5.10;99.90
12682;DHT22;6405;59.208;18.216;2023-12-14T04:22:42;-5.10;99.90
12682;DHT22;6405;59.208;18.216;2023-12-14T04:25:08;-5.10;99.90
12682;DHT22;6405;59.208;18.216;2023-12-14T04:27:34;-5.10;99.90
12682;DHT22;6405;59.208;18.216;2023-12-14T04:30:00;-5.10;99.90
12682;DHT22;6405;59.208;18.216;2023-12-14T04:32:25;-5.10;99.90
12682;DHT22;6405;59.208;18.216;2023-12-14T04:34:51;-5.10;99.90
12682;DHT22;6405;59.208;18.216;2023-12-14T04:37:17;-5.10;99.90
12682;DHT22;6405;59.208;18.216;2023-12-14T04:39:42;-5.10;99.90
12682;DHT22;6405;59.208;18.216;2023-12-14T04:42:08;-5.10;99.90
12682;DHT22;6405;59.208;18.216;2023-12-14T04:44:34;-5.10;99.90
12682;DHT22;6405;59.208;18.216;2023-12-14T04:46:59;-5.10;99.90
12682;DHT22;6405;59.208;18.216;2023-12-14T04:49:25;-5.10;99.90
12682;DHT22;6405;59.208;18.216;2023-12-14T04:51:51;-5.10;99.90
12682;DHT22;6405;59.208;18.216;2023-12-14T04:54:17;-5.10;99.90
12682;DHT22;6405;59.208;18.216;2023-12-14T04:56:45;-5.10;99.90
12682;DHT22;6405;59.208;18.216;2023-12-14T04:59:11;-5.10;99.90
12682;DHT22;6405;59.208;18.216;2023-12-14T05:01:37;-5.00;99.90
12682;DHT22;6405;59.208;18.216;2023-12-14T05:04:02;-5.00;99.90
12682;DHT22;6405;59.208;18.216;2023-12-14T05:06:29;-5.00;99.90
12682;DHT22;6405;59.208;18.216;2023-12-14T05:08:55;-5.00;99.90
12682;DHT22;6405;59.208;18.216;2023-12-14T05:11:21;-5.00;99.90
12682;DHT22;6405;59.208;18.216;2023-12-14T05:13:47;-5.00;99.90
12682;DHT22;6405;59.208;18.216;2023-12-14T05:16:13;-5.00;99.90
12682;DHT22;6405;59.208;18.216;2023-12-14T05:18:39;-5.00;99.90
12682;DHT22;6405;59.208;18.216;2023-12-14T05:21:05;-5.00;99.90
12682;DHT22;6405;59.208;18.216;2023-12-14T05:23:31;-5.00;99.90
12682;DHT22;6405;59.208;18.216;2023-12-14T05:25:56;-5.00;99.90
12682;DHT22;6405;59.208;18.216;2023-12-14T05:28:22;-5.00;99.90
12682;DHT22;6405;59.208;18.216;2023-12-14T05:30:48;-5.00;99.90
12682;DHT22;6405;59.208;18.216;2023-12-14T05:33:14;-5.00;99.90
12682;DHT22;6405;59.208;18.216;2023-12-14T05:35:40;-5.00;99.90
12682;DHT22;6405;59.208;18.216;2023-12-14T05:38:05;-5.00;99.90
12682;DHT22;6405;59.208;18.216;2023-12-14T05:40:31;-5.00;99.90
12682;DHT22;6405;59.208;18.216;2023-12-14T05:42:57;-5.00;99.90
12682;DHT22;6405;59.208;18.216;2023-12-14T05:45:23;-5.10;99.90
12682;DHT22;6405;59.208;18.216;2023-12-14T05:47:49;-5.10;99.90
12682;DHT22;6405;59.208;18.216;2023-12-14T05:50:14;-5.10;99.90
12682;DHT22;6405;59.208;18.216;2023-12-14T05:52:40;-5.10;99.90
12682;DHT22;6405;59.208;18.216;2023-12-14T05:55:08;-5.10;99.90
12682;DHT22;6405;59.208;18.216;2023-12-14T05:57:36;-5.10;99.90
12682;DHT22;6405;59.208;18.216;2023-12-14T06:00:02;-5.10;99.90
12682;DHT22;6405;59.208;18.216;2023-12-14T06:02:29;-5.10;99.90
12682;DHT22;6405;59.208;18.216;2023-12-14T06:04:56;-5.00;99.90
12682;DHT22;6405;59.208;18.216;2023-12-14T06:07:23;-5.00;99.90
12682;DHT22;6405;59.208;18.216;2023-12-14T06:09:49;-5.00;99.90
12682;DHT22;6405;59.208;18.216;2023-12-14T06:12:15;-5.00;99.90
12682;DHT22;6405;59.208;18.216;2023-12-14T06:14:40;-5.00;99.90
12682;DHT22;6405;59.208;18.216;2023-12-14T06:17:06;-5.00;99.90
12682;DHT22;6405;59.208;18.216;2023-12-14T06:19:32;-5.10;99.90
12682;DHT22;6405;59.208;18.216;2023-12-14T06:21:58;-5.10;99.90
12682;DHT22;6405;59.208;18.216;2023-12-14T06:24:23;-5.00;99.90
12682;DHT22;6405;59.208;18.216;2023-12-14T06:26:49;-5.10;99.90
12682;DHT22;6405;59.208;18.216;2023-12-14T06:29:15;-5.10;99.90
12682;DHT22;6405;59.208;18.216;2023-12-14T06:31:41;-5.10;99.90
12682;DHT22;6405;59.208;18.216;2023-12-14T06:34:06;-5.00;99.90
12682;DHT22;6405;59.208;18.216;2023-12-14T06:36:35;-5.00;99.90
12682;DHT22;6405;59.208;18.216;2023-12-14T06:39:02;-5.00;99.90
12682;DHT22;6405;59.208;18.216;2023-12-14T06:41:29;-5.00;99.90
12682;DHT22;6405;59.208;18.216;2023-12-14T06:43:55;-5.00;99.90
12682;DHT22;6405;59.208;18.216;2023-12-14T06:46:21;-5.00;99.90
12682;DHT22;6405;59.208;18.216;2023-12-14T06:48:47;-5.00;99.90
12682;DHT22;6405;59.208;18.216;2023-12-14T06:51:13;-5.00;99.90
12682;DHT22;6405;59.208;18.216;2023-12-14T06:53:43;-5.10;99.90
12682;DHT22;6405;59.208;18.216;2023-12-14T06:56:09;-5.10;99.90
12682;DHT22;6405;59.208;18.216;2023-12-14T06:58:40;-5.10;99.90
12682;DHT22;6405;59.208;18.216;2023-12-14T07:01:07;-5.10;99.90
12682;DHT22;6405;59.208;18.216;2023-12-14T07:03:33;-5.00;99.90
12682;DHT22;6405;59.208;18.216;2023-12-14T07:05:58;-5.10;99.90
12682;DHT22;6405;59.208;18.216;2023-12-14T07:08:24;-5.10;99.90
12682;DHT22;6405;59.208;18.216;2023-12-14T07:10:50;-5.10;99.90
12682;DHT22;6405;59.208;18.216;2023-12-14T07:13:16;-5.10;99.90
12682;DHT22;6405;59.208;18.216;2023-12-14T07:15:42;-5.10;99.90
12682;DHT22;6405;59.208;18.216;2023-12-14T07:18:08;-5.10;99.90
12682;DHT22;6405;59.208;18.216;2023-12-14T07:20:33;-5.10;99.90
12682;DHT22;6405;59.208;18.216;2023-12-14T07:22:59;-5.10;99.90
12682;DHT22;6405;59.208;18.216;2023-12-14T07:25:25;-5.10;99.90
12682;DHT22;6405;59.208;18.216;2023-12-14T07:27:50;-5.10;99.90
12682;DHT22;6405;59.208;18.216;2023-12-14T07:30:16;-5.20;99.90
12682;DHT22;6405;59.208;18.216;2023-12-14T07:32:42;-5.10;99.90
12682;DHT22;6405;59.208;18.216;2023-12-14T07:35:08;-5.10;99.90
12682;DHT22;6405;59.208;18.216;2023-12-14T07:37:34;-5.10;99.90
12682;DHT22;6405;59.208;18.216;2023-12-14T07:40:00;-5.10;99.90
12682;DHT22;6405;59.208;18.216;2023-12-14T07:42:25;-5.10;99.90
12682;DHT22;6405;59.208;18.216;2023-12-14T07:44:51;-5.10;99.90
12682;DHT22;6405;59.208;18.216;2023-12-14T07:47:17;-5.10;99.90
12682;DHT22;6405;59.208;18.216;2023-12-14T07:49:43;-5.00;99.90
12682;DHT22;6405;59.208;18.216;2023-12-14T07:52:08;-5.00;99.90
12682;DHT22;6405;59.208;18.216;2023-12-14T07:54:35;-5.00;99.90
12682;DHT22;6405;59.208;18.216;2023-12-14T07:57:01;-5.00;99.90
12682;DHT22;6405;59.208;18.216;2023-12-14T07:59:27;-5.00;99.90
12682;DHT22;6405;59.208;18.216;2023-12-14T08:01:52;-5.00;99.90
12682;DHT22;6405;59.208;18.216;2023-12-14T08:04:18;-5.00;99.90
12682;DHT22;6405;59.208;18.216;2023-12-14T08:06:44;-5.00;99.90
12682;DHT22;6405;59.208;18.216;2023-12-14T08:09:09;-5.00;99.90
12682;DHT22;6405;59.208;18.216;2023-12-14T08:11:35;-5.10;99.90
12682;DHT22;6405;59.208;18.216;2023-12-14T08:14:01;-5.10;99.90
12682;DHT22;6405;59.208;18.216;2023-12-14T08:16:28;-5.10;99.90
12682;DHT22;6405;59.208;18.216;2023-12-14T08:18:54;-5.10;99.90
12682;DHT22;6405;59.208;18.216;2023-12-14T08:21:19;-5.00;99.90
12682;DHT22;6405;59.208;18.216;2023-12-14T08:23:45;-5.00;99.90
12682;DHT22;6405;59.208;18.216;2023-12-14T08:26:10;-5.00;99.90
12682;DHT22;6405;59.208;18.216;2023-12-14T08:28:39;-5.00;99.90
12682;DHT22;6405;59.208;18.216;2023-12-14T08:31:05;-5.00;99.90
12682;DHT22;6405;59.208;18.216;2023-12-14T08:33:30;-4.90;99.90
12682;DHT22;6405;59.208;18.216;2023-12-14T08:35:56;-5.00;99.90
12682;DHT22;6405;59.208;18.216;2023-12-14T08:38:22;-5.00;99.90
12682;DHT22;6405;59.208;18.216;2023-12-14T08:40:48;-5.00;99.90
12682;DHT22;6405;59.208;18.216;2023-12-14T08:43:14;-5.00;99.90
12682;DHT22;6405;59.208;18.216;2023-12-14T08:45:40;-4.90;99.90
12682;DHT22;6405;59.208;18.216;2023-12-14T08:48:06;-4.90;99.90
12682;DHT22;6405;59.208;18.216;2023-12-14T08:50:31;-4.90;99.90
12682;DHT22;6405;59.208;18.216;2023-12-14T08:52:57;-4.90;99.90
12682;DHT22;6405;59.208;18.216;2023-12-14T08:55:26;-4.90;99.90
12682;DHT22;6405;59.208;18.216;2023-12-14T08:57:52;-4.90;99.90
12682;DHT22;6405;59.208;18.216;2023-12-14T09:00:18;-4.90;99.90
12682;DHT22;6405;59.208;18.216;2023-12-14T09:02:45;-4.90;99.90
12682;DHT22;6405;59.208;18.216;2023-12-14T09:05:15;-4.90;99.90
12682;DHT22;6405;59.208;18.216;2023-12-14T09:07:42;-4.90;99.90
12682;DHT22;6405;59.208;18.216;2023-12-14T09:10:08;-4.90;99.90
12682;DHT22;6405;59.208;18.216;2023-12-14T09:12:34;-4.90;99.90
12682;DHT22;6405;59.208;18.216;2023-12-14T09:15:01;-4.90;99.90
12682;DHT22;6405;59.208;18.216;2023-12-14T09:17:27;-4.90;99.90
12682;DHT22;6405;59.208;18.216;2023-12-14T09:19:59;-4.90;99.90
12682;DHT22;6405;59.208;18.216;2023-12-14T09:22:25;-4.90;99.90
12682;DHT22;6405;59.208;18.216;2023-12-14T09:24:51;-4.90;99.90
12682;DHT22;6405;59.208;18.216;2023-12-14T09:27:17;-4.90;99.90
12682;DHT22;6405;59.208;18.216;2023-12-14T09:29:43;-4.90;99.90
12682;DHT22;6405;59.208;18.216;2023-12-14T09:32:09;-4.90;99.90
12682;DHT22;6405;59.208;18.216;2023-12-14T09:34:35;-4.90;99.90
12682;DHT22;6405;59.208;18.216;2023-12-14T09:37:01;-4.90;99.90
12682;DHT22;6405;59.208;18.216;2023-12-14T09:39:26;-4.90;99.90
12682;DHT22;6405;59.208;18.216;2023-12-14T09:42:02;-5.00;99.90
12682;DHT22;6405;59.208;18.216;2023-12-14T09:44:30;-5.00;99.90
12682;DHT22;6405;59.208;18.216;2023-12-14T09:46:59;-5.00;99.90
12682;DHT22;6405;59.208;18.216;2023-12-14T09:49:26;-4.90;99.90
12682;DHT22;6405;59.208;18.216;2023-12-14T09:51:55;-4.90;99.90
12682;DHT22;6405;59.208;18.216;2023-12-14T09:54:22;-4.90;99.90
12682;DHT22;6405;59.208;18.216;2023-12-14T09:56:48;-4.90;99.90
12682;DHT22;6405;59.208;18.216;2023-12-14T09:59:15;-4.90;99.90
12682;DHT22;6405;59.208;18.216;2023-12-14T10:01:41;-4.90;99.90
12682;DHT22;6405;59.208;18.216;2023-12-14T10:04:12;-4.90;99.90
12682;DHT22;6405;59.208;18.216;2023-12-14T10:06:39;-4.90;99.90
12682;DHT22;6405;59.208;18.216;2023-12-14T10:09:05;-5.00;99.90
12682;DHT22;6405;59.208;18.216;2023-12-14T10:11:35;-5.00;99.90
12682;DHT22;6405;59.208;18.216;2023-12-14T10:14:02;-5.00;99.90
12682;DHT22;6405;59.208;18.216;2023-12-14T10:16:33;-4.90;99.90
12682;DHT22;6405;59.208;18.216;2023-12-14T10:18:59;-4.90;99.90
12682;DHT22;6405;59.208;18.216;2023-12-14T10:21:28;-4.90;99.90
12682;DHT22;6405;59.208;18.216;2023-12-14T10:23:57;-5.00;99.90
12682;DHT22;6405;59.208;18.216;2023-12-14T10:26:26;-5.00;99.90
12682;DHT22;6405;59.208;18.216;2023-12-14T10:28:52;-5.00;99.90
12682;DHT22;6405;59.208;18.216;2023-12-14T10:31:18;-5.00;99.90
12682;DHT22;6405;59.208;18.216;2023-12-14T10:33:48;-5.00;99.90
12682;DHT22;6405;59.208;18.216;2023-12-14T10:36:16;-4.90;99.90
12682;DHT22;6405;59.208;18.216;2023-12-14T10:38:43;-4.90;99.90
12682;DHT22;6405;59.208;18.216;2023-12-14T10:41:13;-4.90;99.90
12682;DHT22;6405;59.208;18.216;2023-12-14T10:43:39;-4.90;99.90
12682;DHT22;6405;59.208;18.216;2023-12-14T10:46:07;-4.90;99.90
12682;DHT22;6405;59.208;18.216;2023-12-14T10:48:35;-4.90;99.90
12682;DHT22;6405;59.208;18.216;2023-12-14T10:51:05;-4.90;99.90
12682;DHT22;6405;59.208;18.216;2023-12-14T10:53:32;-4.90;99.90
12682;DHT22;6405;59.208;18.216;2023-12-14T10:56:00;-4.90;99.90
12682;DHT22;6405;59.208;18.216;2023-12-14T10:58:44;-4.70;99.90
12682;DHT22;6405;59.208;18.216;2023-12-14T11:01:14;-4.90;99.90
12682;DHT22;6405;59.208;18.216;2023-12-14T11:03:41;-4.90;99.90
12682;DHT22;6405;59.208;18.216;2023-12-14T11:08:55;-4.90;99.90
12682;DHT22;6405;59.208;18.216;2023-12-14T11:11:22;-4.90;99.90
12682;DHT22;6405;59.208;18.216;2023-12-14T11:13:51;-5.00;99.90
12682;DHT22;6405;59.208;18.216;2023-12-14T11:16:20;-4.90;99.90
12682;DHT22;6405;59.208;18.216;2023-12-14T11:18:47;-4.90;99.90
12682;DHT22;6405;59.208;18.216;2023-12-14T11:21:18;-4.90;99.90
12682;DHT22;6405;59.208;18.216;2023-12-14T11:23:50;-4.90;99.90
12682;DHT22;6405;59.208;18.216;2023-12-14T11:26:21;-4.90;99.90
12682;DHT22;6405;59.208;18.216;2023-12-14T11:28:50;-4.90;99.90
12682;DHT22;6405;59.208;18.216;2023-12-14T11:31:16;-5.00;99.90
12682;DHT22;6405;59.208;18.216;2023-12-14T11:33:42;-4.90;99.90
12682;DHT22;6405;59.208;18.216;2023-12-14T11:36:11;-5.00;99.90
12682;DHT22;6405;59.208;18.216;2023-12-14T11:38:37;-5.00;99.90
12682;DHT22;6405;59.208;18.216;2023-12-14T11:41:03;-4.90;99.90
12682;DHT22;6405;59.208;18.216;2023-12-14T11:43:29;-4.90;99.90
12682;DHT22;6405;59.208;18.216;2023-12-14T11:45:55;-4.90;99.90
12682;DHT22;6405;59.208;18.216;2023-12-14T11:48:21;-4.90;99.90
12682;DHT22;6405;59.208;18.216;2023-12-14T11:50:47;-4.90;99.90
12682;DHT22;6405;59.208;18.216;2023-12-14T11:53:13;-4.90;99.90
12682;DHT22;6405;59.208;18.216;2023-12-14T11:55:43;-4.90;99.90
12682;DHT22;6405;59.208;18.216;2023-12-14T11:58:11;-5.00;99.90
12682;DHT22;6405;59.208;18.216;2023-12-14T12:00:37;-5.00;99.90
12682;DHT22;6405;59.208;18.216;2023-12-14T12:03:15;-5.00;99.90
12682;DHT22;6405;59.208;18.216;2023-12-14T12:05:45;-5.00;99.90
12682;DHT22;6405;59.208;18.216;2023-12-14T12:08:12;-5.00;99.90
12682;DHT22;6405;59.208;18.216;2023-12-14T12:10:40;-5.00;99.90
12682;DHT22;6405;59.208;18.216;2023-12-14T12:13:16;-4.90;99.90
12682;DHT22;6405;59.208;18.216;2023-12-14T12:15:43;-5.00;99.90
12682;DHT22;6405;59.208;18.216;2023-12-14T12:18:11;-4.90;99.90
12682;DHT22;6405;59.208;18.216;2023-12-14T12:20:37;-4.90;99.90
12682;DHT22;6405;59.208;18.216;2023-12-14T12:23:03;-4.90;99.90
12682;DHT22;6405;59.208;18.216;2023-12-14T12:25:30;-4.90;99.90
12682;DHT22;6405;59.208;18.216;2023-12-14T12:27:57;-5.20;99.90
12682;DHT22;6405;59.208;18.216;2023-12-14T12:30:23;-4.90;99.90
12682;DHT22;6405;59.208;18.216;2023-12-14T12:32:49;-4.90;99.90
12682;DHT22;6405;59.208;18.216;2023-12-14T12:35:22;-4.90;99.90
12682;DHT22;6405;59.208;18.216;2023-12-14T12:37:48;-5.00;99.90
12682;DHT22;6405;59.208;18.216;2023-12-14T12:40:19;-5.00;99.90
12682;DHT22;6405;59.208;18.216;2023-12-14T12:42:46;-5.00;99.90
12682;DHT22;6405;59.208;18.216;2023-12-14T12:45:15;-5.00;99.90
12682;DHT22;6405;59.208;18.216;2023-12-14T12:47:42;-4.80;99.90
12682;DHT22;6405;59.208;18.216;2023-12-14T12:50:08;-5.00;99.90
12682;DHT22;6405;59.208;18.216;2023-12-14T12:52:34;-5.00;99.90
12682;DHT22;6405;59.208;18.216;2023-12-14T12:54:59;-5.00;99.90
12682;DHT22;6405;59.208;18.216;2023-12-14T12:57:26;-5.00;99.90
12682;DHT22;6405;59.208;18.216;2023-12-14T12:59:51;-5.00;99.90
12682;DHT22;6405;59.208;18.216;2023-12-14T13:02:17;-5.10;99.90
12682;DHT22;6405;59.208;18.216;2023-12-14T13:04:43;-5.00;99.90
12682;DHT22;6405;59.208;18.216;2023-12-14T13:07:09;-5.00;99.90
12682;DHT22;6405;59.208;18.216;2023-12-14T13:09:35;-5.00;99.90
12682;DHT22;6405;59.208;18.216;2023-12-14T13:12:00;-5.10;99.90
12682;DHT22;6405;59.208;18.216;2023-12-14T13:14:26;-5.00;99.90
12682;DHT22;6405;59.208;18.216;2023-12-14T13:16:52;-5.10;99.90
12682;DHT22;6405;59.208;18.216;2023-12-14T13:19:18;-5.10;99.90
12682;DHT22;6405;59.208;18.216;2023-12-14T13:21:43;-5.10;99.90
12682;DHT22;6405;59.208;18.216;2023-12-14T13:24:09;-5.10;99.90
12682;DHT22;6405;59.208;18.216;2023-12-14T13:26:35;-5.10;99.90
12682;DHT22;6405;59.208;18.216;2023-12-14T13:29:00;-5.10;99.90
12682;DHT22;6405;59.208;18.216;2023-12-14T13:31:26;-5.10;99.90
12682;DHT22;6405;59.208;18.216;2023-12-14T13:33:52;-5.40;99.90
12682;DHT22;6405;59.208;18.216;2023-12-14T13:36:18;-5.10;99.90
12682;DHT22;6405;59.208;18.216;2023-12-14T13:38:45;-5.10;99.90
12682;DHT22;6405;59.208;18.216;2023-12-14T13:41:11;-5.10;99.90
12682;DHT22;6405;59.208;18.216;2023-12-14T13:43:36;-5.10;99.90
12682;DHT22;6405;59.208;18.216;2023-12-14T13:46:03;-5.10;99.90
12682;DHT22;6405;59.208;18.216;2023-12-14T13:48:29;-5.10;99.90
12682;DHT22;6405;59.208;18.216;2023-12-14T13:50:55;-5.20;99.90
12682;DHT22;6405;59.208;18.216;2023-12-14T13:53:22;-5.10;99.90
12682;DHT22;6405;59.208;18.216;2023-12-14T13:55:48;-5.10;99.90
12682;DHT22;6405;59.208;18.216;2023-12-14T13:58:17;-5.10;99.90
12682;DHT22;6405;59.208;18.216;2023-12-14T14:00:46;-5.10;99.90
12682;DHT22;6405;59.208;18.216;2023-12-14T14:03:14;-5.10;99.90
12682;DHT22;6405;59.208;18.216;2023-12-14T14:05:40;-5.20;99.90
12682;DHT22;6405;59.208;18.216;2023-12-14T14:08:06;-5.20;99.90
12682;DHT22;6405;59.208;18.216;2023-12-14T14:10:31;-5.20;99.90
12682;DHT22;6405;59.208;18.216;2023-12-14T14:12:57;-5.20;99.90
12682;DHT22;6405;59.208;18.216;2023-12-14T14:15:23;-5.00;99.90
12682;DHT22;6405;59.208;18.216;2023-12-14T14:17:49;-5.20;99.90
12682;DHT22;6405;59.208;18.216;2023-12-14T14:20:17;-5.30;99.90
12682;DHT22;6405;59.208;18.216;2023-12-14T14:22:44;-5.30;99.90
12682;DHT22;6405;59.208;18.216;2023-12-14T14:25:10;-5.20;99.90
12682;DHT22;6405;59.208;18.216;2023-12-14T14:27:36;-5.00;99.90
12682;DHT22;6405;59.208;18.216;2023-12-14T14:30:02;-5.30;99.90
12682;DHT22;6405;59.208;18.216;2023-12-14T14:32:28;-5.30;99.90
12682;DHT22;6405;59.208;18.216;2023-12-14T14:34:57;-5.30;99.90
12682;DHT22;6405;59.208;18.216;2023-12-14T14:37:24;-5.30;99.90
12682;DHT22;6405;59.208;18.216;2023-12-14T14:39:50;-5.30;99.90
12682;DHT22;6405;59.208;18.216;2023-12-14T14:42:16;-5.20;99.90
12682;DHT22;6405;59.208;18.216;2023-12-14T14:44:42;-5.30;99.90
12682;DHT22;6405;59.208;18.216;2023-12-14T14:47:08;-5.30;99.90
12682;DHT22;6405;59.208;18.216;2023-12-14T14:49:34;-5.20;99.90
12682;DHT22;6405;59.208;18.216;2023-12-14T14:52:00;-5.20;99.90
12682;DHT22;6405;59.208;18.216;2023-12-14T14:54:26;-5.20;99.90
12682;DHT22;6405;59.208;18.216;2023-12-14T14:56:52;-5.20;99.90
12682;DHT22;6405;59.208;18.216;2023-12-14T14:59:17;-5.20;99.90
12682;DHT22;6405;59.208;18.216;2023-12-14T15:01:43;-5.20;99.90
12682;DHT22;6405;59.208;18.216;2023-12-14T15:04:10;-5.20;99.90
12682;DHT22;6405;59.208;18.216;2023-12-14T15:06:36;-5.20;99.90
12682;DHT22;6405;59.208;18.216;2023-12-14T15:09:07;-5.20;99.90
12682;DHT22;6405;59.208;18.216;2023-12-14T15:11:33;-5.20;99.90
12682;DHT22;6405;59.208;18.216;2023-12-14T15:13:59;-5.20;99.90
12682;DHT22;6405;59.208;18.216;2023-12-14T15:16:24;-5.20;99.90
12682;DHT22;6405;59.208;18.216;2023-12-14T15:18:53;-5.00;99.90
12682;DHT22;6405;59.208;18.216;2023-12-14T15:21:19;-5.10;99.90
12682;DHT22;6405;59.208;18.216;2023-12-14T15:23:45;-5.10;99.90
12682;DHT22;6405;59.208;18.216;2023-12-14T15:26:13;-5.10;99.90
12682;DHT22;6405;59.208;18.216;2023-12-14T15:28:41;-5.10;99.90